Maquoketa, Iowa
Current Conditions -  °F | °C
As of 8:53 AM on Thursday 30 Oct 2014 (Local Time) from KDBQ Reporting Station
Overcast Overcast  
Wind Chill: 33°   Ceiling: 8500
Heat Index: 37°   Visibility: 10mi
Dew Point: 35°   Wind: 5mph
Humidity: 93%   Direction: 230°SW
Pressure: 30.1"   Gusts: NA
Location:  42.07°N, 90.66°W
Report Text: KDBQ 301353Z 23004KT 10SM OVC085 03/02 A3010 RMK AO2 SLP205 T00280017
Loading
Personal Weather Stations






























Interactive Weather Map
Tropical Storm Tracking
New forecast layout! Learn more

10-Day Weather Forecast

Advertisements
Track Severe Weather on mobile